Time;durP1;ratioP1;P1;durP2;ratioP2;P2;SDS_P1;SDS_P2;PMS_P1;PMS_P2;Temp;Humidity;BMP_temperature;BMP_pressure;BME280_temperature;BME280_humidity;BME280_pressure;Samples;Min_cycle;Max_cycle;Signal;HPM_P1;HPM_P2
2022/04/19 00:00:44;;;;;;;23.17;15.60;;;;;;;;;;5051396;28;20525;-85
2022/04/19 00:03:11;;;;;;;23.08;16.38;;;;;;;;;;5060853;28;20521;-84
2022/04/19 00:05:37;;;;;;;23.10;16.30;;;;;;;;;;5065581;28;20045;-84
2022/04/19 00:08:07;;;;;;;22.42;16.13;;;;;;;;;;5058909;28;20044;-85
2022/04/19 00:10:34;;;;;;;23.33;16.30;;;;;;;;;;5064982;28;20032;-85
2022/04/19 00:13:01;;;;;;;25.75;15.35;;;;;;;;;;5066940;28;20024;-86
2022/04/19 00:15:28;;;;;;;24.58;16.65;;;;;;;;;;5069642;28;20029;-86
2022/04/19 00:17:58;;;;;;;22.38;16.35;;;;;;;;;;5069751;28;20052;-86
2022/04/19 00:20:24;;;;;;;22.83;16.05;;;;;;;;;;5062930;28;20039;-86
2022/04/19 00:22:51;;;;;;;24.17;17.17;;;;;;;;;;5066789;28;20159;-86
2022/04/19 00:25:17;;;;;;;26.98;18.13;;;;;;;;;;5063605;28;20037;-86
2022/04/19 00:27:43;;;;;;;25.48;17.55;;;;;;;;;;5065939;28;20024;-85
2022/04/19 00:30:10;;;;;;;23.25;17.45;;;;;;;;;;5064648;28;20013;-86
2022/04/19 00:32:37;;;;;;;25.38;16.88;;;;;;;;;;5057752;28;20060;-85
2022/04/19 00:35:06;;;;;;;27.08;17.75;;;;;;;;;;5059958;28;20432;-84
2022/04/19 00:37:35;;;;;;;25.75;18.65;;;;;;;;;;5056141;28;20486;-84
2022/04/19 00:40:01;;;;;;;23.90;17.13;;;;;;;;;;5040804;28;20110;-85
2022/04/19 00:42:28;;;;;;;23.17;16.70;;;;;;;;;;5054129;28;20043;-85
2022/04/19 00:44:58;;;;;;;23.30;17.10;;;;;;;;;;5063486;28;20058;-84
2022/04/19 00:47:24;;;;;;;21.63;16.50;;;;;;;;;;5065349;28;20041;-86
2022/04/19 00:49:51;;;;;;;22.23;16.58;;;;;;;;;;5064222;28;20441;-85
2022/04/19 00:52:17;;;;;;;27.00;16.75;;;;;;;;;;5070304;28;20036;-84
2022/04/19 00:54:43;;;;;;;25.98;18.15;;;;;;;;;;5066652;28;20037;-84
2022/04/19 00:57:11;;;;;;;25.05;18.23;;;;;;;;;;5068494;28;20058;-87
2022/04/19 00:59:37;;;;;;;31.08;22.38;;;;;;;;;;5070604;28;20032;-85
2022/04/19 01:02:03;;;;;;;26.02;19.25;;;;;;;;;;5045412;28;20044;-87
2022/04/19 01:04:29;;;;;;;24.95;18.40;;;;;;;;;;5064979;28;20182;-86
2022/04/19 01:06:56;;;;;;;23.25;16.65;;;;;;;;;;5060217;28;20064;-85
2022/04/19 01:09:23;;;;;;;25.50;16.83;;;;;;;;;;5057884;28;20517;-85
2022/04/19 01:14:38;;;;;;;21.48;16.55;;;;;;;;;;5060081;28;20184;-86
2022/04/19 01:17:07;;;;;;;21.65;15.85;;;;;;;;;;5061411;28;20082;-86
2022/04/19 01:19:40;;;;;;;22.95;15.82;;;;;;;;;;5060167;28;20033;-85
2022/04/19 01:22:06;;;;;;;22.83;16.33;;;;;;;;;;5060996;28;20048;-86
2022/04/19 01:24:36;;;;;;;27.55;17.05;;;;;;;;;;5066661;28;20032;-86
2022/04/19 01:27:03;;;;;;;24.27;16.83;;;;;;;;;;5063686;28;20116;-85
2022/04/19 01:29:29;;;;;;;24.63;16.05;;;;;;;;;;5065450;28;20028;-85
2022/04/19 01:31:55;;;;;;;25.67;16.70;;;;;;;;;;5063756;28;20383;-86
2022/04/19 01:34:21;;;;;;;25.45;17.55;;;;;;;;;;5063289;28;20064;-85
2022/04/19 01:36:47;;;;;;;23.85;17.27;;;;;;;;;;5062362;28;20028;-85
2022/04/19 01:39:13;;;;;;;23.13;17.38;;;;;;;;;;5042208;28;20119;-86
2022/04/19 01:41:40;;;;;;;23.13;17.13;;;;;;;;;;5058277;28;20159;-86
2022/04/19 01:44:06;;;;;;;22.48;16.08;;;;;;;;;;5059630;28;20498;-84
2022/04/19 01:46:33;;;;;;;23.02;16.35;;;;;;;;;;5056731;28;20397;-86
2022/04/19 01:48:59;;;;;;;25.42;15.90;;;;;;;;;;5038062;28;20036;-86
2022/04/19 01:51:25;;;;;;;22.75;16.27;;;;;;;;;;5048684;28;20112;-86
2022/04/19 01:53:52;;;;;;;20.95;15.52;;;;;;;;;;5060692;28;20060;-86
2022/04/19 01:56:18;;;;;;;23.25;14.80;;;;;;;;;;5065413;28;20087;-86
2022/04/19 01:58:45;;;;;;;20.00;15.25;;;;;;;;;;5066125;28;20041;-86
2022/04/19 02:01:11;;;;;;;21.45;14.77;;;;;;;;;;5051169;28;20046;-86
2022/04/19 02:03:37;;;;;;;21.17;15.88;;;;;;;;;;5046077;28;20036;-86
2022/04/19 02:06:10;;;;;;;19.90;15.13;;;;;;;;;;5045042;28;20049;-85
2022/04/19 02:08:36;;;;;;;21.92;14.73;;;;;;;;;;5045218;28;20049;-86
2022/04/19 02:11:02;;;;;;;20.58;14.27;;;;;;;;;;5048292;28;20032;-85
2022/04/19 02:13:31;;;;;;;22.92;15.10;;;;;;;;;;5041740;28;20509;-86
2022/04/19 02:15:58;;;;;;;18.33;13.80;;;;;;;;;;5040989;28;20052;-86
2022/04/19 02:18:24;;;;;;;21.00;14.73;;;;;;;;;;5016643;28;20046;-86
2022/04/19 02:20:50;;;;;;;18.48;13.75;;;;;;;;;;5039989;28;20470;-86
2022/04/19 02:23:16;;;;;;;19.98;14.00;;;;;;;;;;5017132;28;20040;-86
2022/04/19 02:25:42;;;;;;;22.83;14.63;;;;;;;;;;5007988;28;20045;-86
2022/04/19 02:28:10;;;;;;;22.33;14.32;;;;;;;;;;5019727;28;20060;-86
2022/04/19 02:30:37;;;;;;;20.30;15.02;;;;;;;;;;5043006;28;20576;-85
2022/04/19 02:33:03;;;;;;;19.52;13.88;;;;;;;;;;5046830;28;20052;-86
2022/04/19 02:35:31;;;;;;;20.42;14.77;;;;;;;;;;5044375;28;20040;-85
2022/04/19 02:37:58;;;;;;;19.23;14.23;;;;;;;;;;5040842;28;20106;-86
2022/04/19 02:40:24;;;;;;;18.77;14.40;;;;;;;;;;5046047;28;20056;-84
2022/04/19 02:42:51;;;;;;;22.10;14.82;;;;;;;;;;5047347;28;20009;-85
2022/04/19 02:45:21;;;;;;;20.05;15.13;;;;;;;;;;5040226;28;20068;-85
2022/04/19 02:47:47;;;;;;;23.13;15.77;;;;;;;;;;5035905;28;20494;-86
2022/04/19 02:50:16;;;;;;;25.80;16.27;;;;;;;;;;5034538;28;20029;-87
2022/04/19 02:52:42;;;;;;;22.48;15.57;;;;;;;;;;5035246;28;20420;-87
2022/04/19 02:55:08;;;;;;;22.20;15.95;;;;;;;;;;5040122;28;20025;-87
2022/04/19 02:57:34;;;;;;;22.85;15.43;;;;;;;;;;5030740;28;20025;-86
2022/04/19 03:00:00;;;;;;;23.65;16.17;;;;;;;;;;5046931;28;20041;-86
2022/04/19 03:02:26;;;;;;;22.00;15.63;;;;;;;;;;5060881;28;20040;-85
2022/04/19 03:04:53;;;;;;;22.85;15.85;;;;;;;;;;5065178;28;20096;-84
2022/04/19 03:07:19;;;;;;;22.58;16.23;;;;;;;;;;5041114;28;20029;-86
2022/04/19 03:09:45;;;;;;;25.42;16.60;;;;;;;;;;5061276;28;20033;-85
2022/04/19 03:12:11;;;;;;;23.50;16.67;;;;;;;;;;5054604;28;20039;-87
2022/04/19 03:14:38;;;;;;;24.67;17.25;;;;;;;;;;5068566;28;20636;-87
2022/04/19 03:17:06;;;;;;;22.30;15.80;;;;;;;;;;5064335;28;20036;-86
2022/04/19 03:19:32;;;;;;;21.92;16.17;;;;;;;;;;5038107;28;20272;-86
2022/04/19 03:21:58;;;;;;;26.63;16.42;;;;;;;;;;5060875;28;20056;-86
2022/04/19 03:29:53;;;;;;;28.30;18.63;;;;;;;;;;5055759;28;20114;-86
2022/04/19 03:32:19;;;;;;;26.73;18.52;;;;;;;;;;5053969;28;20595;-86
2022/04/19 03:34:46;;;;;;;28.00;18.42;;;;;;;;;;5053246;28;20036;-86
2022/04/19 03:37:12;;;;;;;30.40;18.90;;;;;;;;;;5059109;28;20050;-86
2022/04/19 03:39:38;;;;;;;25.20;17.27;;;;;;;;;;5061889;28;20313;-86
2022/04/19 03:42:08;;;;;;;25.73;17.40;;;;;;;;;;5062192;28;20013;-86
2022/04/19 03:44:36;;;;;;;24.25;17.13;;;;;;;;;;5061667;28;20044;-85
2022/04/19 03:47:08;;;;;;;26.25;17.50;;;;;;;;;;5059047;28;20033;-85
2022/04/19 03:49:36;;;;;;;26.73;17.92;;;;;;;;;;5064073;28;20096;-87
2022/04/19 03:52:02;;;;;;;28.63;19.23;;;;;;;;;;5041678;28;20144;-86
2022/04/19 03:54:28;;;;;;;27.45;18.35;;;;;;;;;;5061824;28;20029;-85
2022/04/19 03:56:54;;;;;;;27.98;17.73;;;;;;;;;;5060502;28;20571;-85
2022/04/19 03:59:22;;;;;;;28.42;17.00;;;;;;;;;;5060672;28;20020;-86
2022/04/19 04:01:48;;;;;;;23.30;17.63;;;;;;;;;;5059029;28;20494;-86
2022/04/19 04:04:14;;;;;;;29.40;18.77;;;;;;;;;;5058417;28;20245;-86
2022/04/19 04:06:41;;;;;;;29.08;19.23;;;;;;;;;;5038952;28;20108;-86
2022/04/19 04:09:07;;;;;;;40.67;18.95;;;;;;;;;;5054137;28;20128;-87
2022/04/19 04:11:33;;;;;;;32.35;19.38;;;;;;;;;;5064017;28;20038;-87
2022/04/19 04:13:59;;;;;;;30.58;19.08;;;;;;;;;;5063870;28;20033;-86
2022/04/19 04:16:25;;;;;;;37.25;19.88;;;;;;;;;;5064151;28;20128;-87
2022/04/19 04:18:51;;;;;;;29.95;18.88;;;;;;;;;;5069649;28;20082;-85
2022/04/19 04:21:17;;;;;;;30.42;19.45;;;;;;;;;;5065172;28;20085;-86
2022/04/19 04:23:43;;;;;;;26.77;18.63;;;;;;;;;;5069644;28;20083;-86
2022/04/19 04:26:09;;;;;;;25.23;17.58;;;;;;;;;;5064578;28;20021;-86
2022/04/19 04:28:36;;;;;;;27.98;17.08;;;;;;;;;;5059292;28;20428;-84
2022/04/19 04:31:02;;;;;;;37.70;18.95;;;;;;;;;;5059143;28;20041;-86
2022/04/19 04:33:28;;;;;;;46.25;19.73;;;;;;;;;;5057393;28;20044;-86
2022/04/19 04:35:54;;;;;;;30.73;19.20;;;;;;;;;;5036873;28;20455;-85
2022/04/19 04:38:20;;;;;;;27.42;18.25;;;;;;;;;;5055645;28;20017;-86
2022/04/19 04:40:46;;;;;;;25.65;17.88;;;;;;;;;;5061733;28;20032;-86
2022/04/19 04:43:12;;;;;;;30.15;17.13;;;;;;;;;;5062950;28;20029;-86
2022/04/19 04:45:38;;;;;;;36.88;19.42;;;;;;;;;;5069533;28;21184;-85
2022/04/19 04:50:49;;;;;;;26.70;18.20;;;;;;;;;;5064399;28;20117;-86
2022/04/19 04:53:15;;;;;;;26.70;17.50;;;;;;;;;;5067521;28;20498;-85
2022/04/19 04:55:42;;;;;;;25.17;16.05;;;;;;;;;;5070078;28;20052;-85
2022/04/19 04:58:10;;;;;;;31.33;17.48;;;;;;;;;;5059793;28;20383;-86
2022/04/19 05:00:36;;;;;;;125.72;20.48;;;;;;;;;;5060579;28;20056;-85
2022/04/19 05:03:02;;;;;;;52.78;17.33;;;;;;;;;;5056381;28;20087;-84
2022/04/19 05:05:28;;;;;;;32.58;18.08;;;;;;;;;;5061641;28;20060;-85
2022/04/19 05:07:54;;;;;;;28.45;17.00;;;;;;;;;;5059311;28;20370;-85
2022/04/19 05:10:20;;;;;;;24.05;16.48;;;;;;;;;;5058721;28;20033;-83
2022/04/19 05:12:46;;;;;;;33.53;16.88;;;;;;;;;;5039986;28;20095;-85
2022/04/19 05:15:12;;;;;;;27.27;16.65;;;;;;;;;;5061472;28;20033;-84
2022/04/19 05:17:38;;;;;;;102.10;18.08;;;;;;;;;;5043152;28;20025;-86
2022/04/19 05:20:04;;;;;;;49.90;16.05;;;;;;;;;;5047309;28;20073;-86
2022/04/19 05:22:31;;;;;;;26.15;14.55;;;;;;;;;;5068420;28;20039;-88
2022/04/19 05:24:57;;;;;;;49.08;15.88;;;;;;;;;;5069138;28;20033;-85
2022/04/19 05:27:23;;;;;;;22.98;13.05;;;;;;;;;;5063173;28;20533;-82
2022/04/19 05:29:49;;;;;;;16.45;12.27;;;;;;;;;;5064589;28;20036;-84
2022/04/19 05:32:16;;;;;;;21.00;12.63;;;;;;;;;;5063275;28;20041;-85
2022/04/19 05:34:43;;;;;;;40.88;13.48;;;;;;;;;;5063224;28;20028;-85
2022/04/19 05:37:09;;;;;;;46.97;13.40;;;;;;;;;;5065630;28;20083;-77
2022/04/19 05:39:35;;;;;;;36.33;14.02;;;;;;;;;;5061935;28;20541;-86
2022/04/19 05:42:01;;;;;;;22.40;12.43;;;;;;;;;;5060354;28;20039;-85
2022/04/19 05:44:27;;;;;;;18.83;12.50;;;;;;;;;;5058618;28;20083;-82
2022/04/19 05:46:53;;;;;;;19.15;12.38;;;;;;;;;;5059651;28;20443;-85
2022/04/19 05:49:19;;;;;;;19.10;11.48;;;;;;;;;;5060157;28;20036;-84
2022/04/19 05:51:45;;;;;;;33.60;13.65;;;;;;;;;;5054113;28;20492;-84
2022/04/19 05:54:11;;;;;;;19.90;12.60;;;;;;;;;;5060300;28;20024;-83
2022/04/19 05:56:37;;;;;;;24.05;12.50;;;;;;;;;;5044632;28;20056;-85
2022/04/19 05:59:03;;;;;;;24.77;12.80;;;;;;;;;;5054064;28;20031;-85
2022/04/19 06:04:51;;;;;;;19.15;12.35;;;;;;;;;;5051945;28;21566;-87
2022/04/19 06:06:59;;;;;;;34.08;12.00;;;;;;;;;;5072033;28;20055;-85
2022/04/19 06:09:25;;;;;;;28.73;11.90;;;;;;;;;;5066863;28;20032;-87
2022/04/19 06:11:51;;;;;;;44.80;12.90;;;;;;;;;;5059047;28;20037;-85
2022/04/19 06:14:37;;;;;;;29.30;12.85;;;;;;;;;;5062798;28;20089;-84
2022/04/19 06:17:03;;;;;;;29.05;13.73;;;;;;;;;;5070806;28;20021;-84
2022/04/19 06:19:30;;;;;;;18.17;11.52;;;;;;;;;;5059617;28;20497;-86
2022/04/19 06:21:56;;;;;;;22.85;12.32;;;;;;;;;;5057060;28;20037;-85
2022/04/19 06:24:22;;;;;;;21.17;12.35;;;;;;;;;;5058845;28;20035;-86
2022/04/19 06:26:48;;;;;;;20.58;12.35;;;;;;;;;;5059633;28;20048;-85
2022/04/19 06:29:15;;;;;;;37.20;13.63;;;;;;;;;;5057962;28;20136;-85
2022/04/19 06:31:43;;;;;;;27.50;13.07;;;;;;;;;;5075224;28;20038;-87
2022/04/19 06:34:09;;;;;;;22.52;11.90;;;;;;;;;;5076406;28;20324;-86
2022/04/19 06:36:36;;;;;;;22.38;12.57;;;;;;;;;;5069310;28;20452;-86
2022/04/19 06:39:02;;;;;;;17.98;11.77;;;;;;;;;;5062043;28;20005;-88
2022/04/19 06:41:28;;;;;;;20.63;12.07;;;;;;;;;;5072434;28;20028;-86
2022/04/19 06:43:57;;;;;;;27.27;12.50;;;;;;;;;;5075271;28;20025;-88
2022/04/19 06:46:25;;;;;;;22.85;13.48;;;;;;;;;;5067177;28;20096;-85
2022/04/19 06:48:53;;;;;;;17.40;12.27;;;;;;;;;;5072776;28;20066;-85
2022/04/19 06:51:19;;;;;;;22.45;13.85;;;;;;;;;;5063525;28;20079;-88
2022/04/19 06:53:45;;;;;;;28.88;13.10;;;;;;;;;;5046777;28;20036;-88
2022/04/19 06:56:11;;;;;;;25.80;13.13;;;;;;;;;;5074358;28;20029;-87
2022/04/19 06:58:39;;;;;;;22.17;12.85;;;;;;;;;;5062459;28;20033;-86
2022/04/19 07:01:05;;;;;;;25.92;13.40;;;;;;;;;;5055685;28;20048;-88
2022/04/19 07:03:31;;;;;;;23.63;13.10;;;;;;;;;;5049917;28;20043;-86
2022/04/19 07:05:58;;;;;;;39.90;14.13;;;;;;;;;;5038673;28;20021;-85
2022/04/19 07:08:24;;;;;;;17.33;11.85;;;;;;;;;;5039056;28;20025;-86
2022/04/19 07:10:50;;;;;;;20.83;12.85;;;;;;;;;;5041730;28;20428;-85
2022/04/19 07:13:16;;;;;;;18.00;12.80;;;;;;;;;;5020563;28;20064;-86
2022/04/19 07:15:42;;;;;;;19.88;13.13;;;;;;;;;;5039987;28;20367;-84
2022/04/19 07:18:08;;;;;;;19.65;12.57;;;;;;;;;;5035106;28;20094;-86
2022/04/19 07:28:47;;;;;;;22.10;12.68;;;;;;;;;;5045805;28;20056;-85
2022/04/19 07:31:14;;;;;;;19.65;12.23;;;;;;;;;;5039871;28;20032;-86
2022/04/19 07:33:40;;;;;;;19.95;12.27;;;;;;;;;;5018310;28;20041;-86
2022/04/19 07:36:06;;;;;;;20.85;12.30;;;;;;;;;;5039814;28;20037;-83
2022/04/19 07:38:33;;;;;;;17.23;10.93;;;;;;;;;;5046325;28;20041;-84
2022/04/19 07:40:59;;;;;;;17.35;11.32;;;;;;;;;;5039823;28;20105;-83
2022/04/19 07:43:26;;;;;;;17.40;11.23;;;;;;;;;;5025886;28;20040;-81
2022/04/19 07:45:52;;;;;;;17.13;10.77;;;;;;;;;;5044347;28;20451;-87
2022/04/19 07:48:18;;;;;;;14.85;10.38;;;;;;;;;;5048533;28;20083;-84
2022/04/19 07:50:44;;;;;;;20.92;10.40;;;;;;;;;;5040460;28;20438;-83
2022/04/19 07:53:11;;;;;;;16.35;9.45;;;;;;;;;;5039235;28;20038;-84
2022/04/19 07:55:37;;;;;;;47.13;11.60;;;;;;;;;;5036128;28;20139;-82
2022/04/19 07:58:03;;;;;;;22.98;10.25;;;;;;;;;;5035867;28;20033;-84
2022/04/19 08:00:33;;;;;;;18.52;8.95;;;;;;;;;;5059520;28;20048;-86
2022/04/19 08:02:59;;;;;;;17.75;8.32;;;;;;;;;;5068820;28;20021;-81
2022/04/19 08:05:25;;;;;;;14.32;7.80;;;;;;;;;;5056178;28;20037;-83
2022/04/19 08:07:51;;;;;;;15.55;8.10;;;;;;;;;;5056465;28;20025;-82
2022/04/19 08:10:18;;;;;;;11.90;7.70;;;;;;;;;;5041498;28;20036;-85
2022/04/19 08:12:45;;;;;;;19.25;8.00;;;;;;;;;;5063829;28;20094;-83
2022/04/19 08:15:11;;;;;;;13.65;7.93;;;;;;;;;;5059503;28;20071;-83
2022/04/19 08:17:37;;;;;;;12.98;7.03;;;;;;;;;;5056561;28;20464;-85
2022/04/19 08:20:04;;;;;;;11.55;7.03;;;;;;;;;;5037740;28;20029;-84
2022/04/19 08:22:30;;;;;;;11.73;7.47;;;;;;;;;;5079778;28;20032;-85
2022/04/19 08:24:56;;;;;;;13.23;7.85;;;;;;;;;;5060468;28;20060;-83
2022/04/19 08:27:22;;;;;;;14.25;8.20;;;;;;;;;;5080703;28;20060;-84
2022/04/19 08:29:48;;;;;;;14.23;8.10;;;;;;;;;;5047578;28;20021;-83
2022/04/19 08:32:15;;;;;;;19.92;8.52;;;;;;;;;;5052032;28;20048;-86
2022/04/19 08:34:42;;;;;;;15.70;8.05;;;;;;;;;;5056476;28;20022;-85
2022/04/19 08:37:09;;;;;;;14.20;8.35;;;;;;;;;;5058840;28;20017;-84
2022/04/19 08:39:36;;;;;;;17.65;8.43;;;;;;;;;;5058516;28;20048;-84
2022/04/19 08:42:02;;;;;;;12.38;8.02;;;;;;;;;;5068250;28;20033;-82
2022/04/19 08:44:28;;;;;;;20.02;8.02;;;;;;;;;;5047504;28;20055;-84
2022/04/19 08:46:57;;;;;;;13.95;8.05;;;;;;;;;;5068244;28;20049;-84
2022/04/19 08:49:25;;;;;;;16.55;8.32;;;;;;;;;;5065552;28;20040;-82
2022/04/19 08:51:51;;;;;;;11.88;7.32;;;;;;;;;;5062750;28;20094;-84
2022/04/19 08:59:49;;;;;;;16.67;8.15;;;;;;;;;;5078953;28;20071;-83
2022/04/19 09:02:19;;;;;;;17.27;7.65;;;;;;;;;;5062406;28;20031;-84
2022/04/19 09:04:46;;;;;;;12.40;7.07;;;;;;;;;;5039946;28;20041;-84
2022/04/19 09:07:12;;;;;;;11.95;7.18;;;;;;;;;;5073117;28;20085;-83
2022/04/19 09:09:38;;;;;;;11.63;7.40;;;;;;;;;;5076993;28;20143;-86
2022/04/19 09:12:08;;;;;;;11.80;7.00;;;;;;;;;;5074645;28;20032;-83
2022/04/19 09:14:35;;;;;;;19.33;7.03;;;;;;;;;;5074703;28;20052;-84
2022/04/19 09:17:05;;;;;;;16.90;7.30;;;;;;;;;;5061983;28;20044;-84
2022/04/19 09:19:31;;;;;;;15.93;7.38;;;;;;;;;;5056215;28;20036;-82
2022/04/19 09:21:57;;;;;;;14.05;7.60;;;;;;;;;;5055984;28;20028;-83
2022/04/19 09:24:25;;;;;;;13.07;7.20;;;;;;;;;;5057136;28;20344;-82
2022/04/19 09:26:52;;;;;;;17.05;8.40;;;;;;;;;;5067517;28;20032;-83
2022/04/19 09:29:19;;;;;;;12.43;7.50;;;;;;;;;;5078960;28;20028;-88
2022/04/19 09:31:45;;;;;;;15.27;7.53;;;;;;;;;;5064308;28;20113;-80
2022/04/19 09:34:11;;;;;;;11.95;6.85;;;;;;;;;;5079294;28;20084;-84
2022/04/19 09:36:37;;;;;;;14.63;7.40;;;;;;;;;;5078590;28;20032;-82
2022/04/19 09:39:23;;;;;;;13.60;7.80;;;;;;;;;;5080253;28;20024;-83
2022/04/19 09:41:59;;;;;;;15.43;7.28;;;;;;;;;;5061878;28;20075;-84
2022/04/19 09:44:26;;;;;;;14.55;6.88;;;;;;;;;;5083787;28;20028;-84
2022/04/19 09:47:01;;;;;;;14.20;7.05;;;;;;;;;;5078206;28;20036;-83
2022/04/19 09:49:44;;;;;;;13.63;7.05;;;;;;;;;;5061784;28;20025;-82
2022/04/19 09:52:12;;;;;;;11.98;6.55;;;;;;;;;;5070957;28;20429;-84
2022/04/19 09:54:38;;;;;;;13.95;6.13;;;;;;;;;;5059855;28;20043;-83
2022/04/19 09:57:09;;;;;;;11.55;6.22;;;;;;;;;;5060270;28;20056;-85
2022/04/19 09:59:39;;;;;;;11.18;6.68;;;;;;;;;;5058460;28;20024;-82
2022/04/19 10:10:39;;;;;;;12.63;6.55;;;;;;;;;;4959128;28;20042;-89
2022/04/19 10:13:06;;;;;;;10.98;6.38;;;;;;;;;;4970758;28;20129;-84
2022/04/19 10:15:32;;;;;;;14.13;6.88;;;;;;;;;;4999985;28;20041;-83
2022/04/19 10:17:58;;;;;;;12.68;6.93;;;;;;;;;;5032273;28;20029;-87
2022/04/19 10:20:31;;;;;;;11.63;6.85;;;;;;;;;;5036519;28;20406;-85
2022/04/19 10:23:01;;;;;;;14.40;7.15;;;;;;;;;;5046196;28;20082;-86
2022/04/19 10:25:34;;;;;;;12.35;6.85;;;;;;;;;;5034226;28;20025;-84
2022/04/19 10:28:04;;;;;;;11.07;6.57;;;;;;;;;;5034681;28;20037;-82
2022/04/19 10:30:33;;;;;;;10.98;6.28;;;;;;;;;;5037966;28;20097;-87
2022/04/19 10:33:00;;;;;;;12.10;6.50;;;;;;;;;;5041749;28;20041;-85
2022/04/19 10:35:26;;;;;;;11.25;6.47;;;;;;;;;;5049263;28;20036;-83
2022/04/19 10:38:11;;;;;;;13.25;6.50;;;;;;;;;;5037121;28;20030;-82
2022/04/19 10:40:50;;;;;;;13.27;7.25;;;;;;;;;;5039684;28;20033;-85
2022/04/19 10:43:16;;;;;;;13.65;6.50;;;;;;;;;;5048818;28;20009;-83
2022/04/19 10:45:46;;;;;;;10.82;6.15;;;;;;;;;;5033856;28;20509;-82
2022/04/19 10:48:14;;;;;;;9.35;5.82;;;;;;;;;;5047893;28;20029;-83
2022/04/19 10:50:44;;;;;;;13.13;5.88;;;;;;;;;;5048156;28;20090;-83
2022/04/19 10:53:13;;;;;;;13.65;5.70;;;;;;;;;;5041423;28;20041;-82
2022/04/19 10:55:40;;;;;;;11.93;6.50;;;;;;;;;;5044658;28;20033;-84
2022/04/19 10:58:09;;;;;;;10.40;5.68;;;;;;;;;;5058784;28;20038;-83
2022/04/19 11:00:35;;;;;;;9.35;5.88;;;;;;;;;;5064043;28;20568;-84
2022/04/19 11:03:01;;;;;;;9.88;5.88;;;;;;;;;;5044223;28;20036;-82
2022/04/19 11:05:42;;;;;;;13.13;5.40;;;;;;;;;;5066115;28;20056;-84
2022/04/19 11:08:26;;;;;;;24.65;6.57;;;;;;;;;;5064563;28;20041;-83
2022/04/19 11:11:22;;;;;;;9.07;4.90;;;;;;;;;;5060247;28;20024;-82
2022/04/19 11:14:08;;;;;;;10.73;5.05;;;;;;;;;;5055061;28;20029;-85
2022/04/19 11:16:37;;;;;;;9.05;5.30;;;;;;;;;;5035520;28;20075;-82
2022/04/19 11:19:13;;;;;;;9.13;5.25;;;;;;;;;;5071073;28;20012;-85
2022/04/19 11:21:53;;;;;;;10.00;5.47;;;;;;;;;;5056696;28;20461;-86
2022/04/19 11:24:39;;;;;;;11.73;5.57;;;;;;;;;;5058510;28;20027;-85
2022/04/19 11:27:05;;;;;;;9.77;5.90;;;;;;;;;;5061616;28;20097;-84
2022/04/19 11:29:47;;;;;;;11.48;6.10;;;;;;;;;;5062925;28;20040;-82
2022/04/19 11:32:13;;;;;;;9.00;5.38;;;;;;;;;;5063504;28;20032;-83
2022/04/19 11:34:39;;;;;;;11.90;6.15;;;;;;;;;;5070752;28;20041;-84
2022/04/19 11:37:06;;;;;;;13.23;5.63;;;;;;;;;;5068845;28;20033;-84
2022/04/19 11:47:55;;;;;;;13.63;5.75;;;;;;;;;;5062780;28;20058;-84
2022/04/19 11:50:31;;;;;;;9.73;4.90;;;;;;;;;;5063095;28;20200;-81
2022/04/19 11:52:58;;;;;;;9.25;4.78;;;;;;;;;;5058767;28;20494;-86
2022/04/19 11:55:27;;;;;;;11.00;5.20;;;;;;;;;;5069110;28;20474;-84
2022/04/19 11:58:05;;;;;;;17.20;4.78;;;;;;;;;;5057267;28;20052;-83
2022/04/19 12:00:31;;;;;;;9.13;4.47;;;;;;;;;;5058225;28;20110;-82
2022/04/19 12:02:58;;;;;;;8.45;4.97;;;;;;;;;;5057434;28;20498;-82
2022/04/19 12:05:25;;;;;;;8.88;4.78;;;;;;;;;;5056069;28;20048;-83
2022/04/19 12:07:52;;;;;;;10.70;5.18;;;;;;;;;;5055868;28;20037;-82
2022/04/19 12:10:18;;;;;;;11.27;5.65;;;;;;;;;;5060541;28;20016;-81
2022/04/19 12:12:46;;;;;;;12.32;5.95;;;;;;;;;;5070461;28;20126;-82
2022/04/19 12:15:12;;;;;;;9.27;4.82;;;;;;;;;;5073922;28;20036;-81
2022/04/19 12:17:45;;;;;;;10.20;4.90;;;;;;;;;;5073452;28;20037;-79
2022/04/19 12:20:11;;;;;;;13.05;5.57;;;;;;;;;;5072802;28;20516;-81
2022/04/19 12:22:37;;;;;;;9.80;5.10;;;;;;;;;;5058093;28;20028;-84
2022/04/19 12:25:04;;;;;;;14.13;5.97;;;;;;;;;;5058254;28;20074;-85
2022/04/19 12:27:30;;;;;;;10.93;6.05;;;;;;;;;;5075939;28;20049;-86
2022/04/19 12:29:56;;;;;;;10.45;5.38;;;;;;;;;;5077672;28;20120;-86
2022/04/19 12:32:23;;;;;;;10.25;6.03;;;;;;;;;;5072847;28;20128;-84
2022/04/19 12:34:50;;;;;;;9.23;5.38;;;;;;;;;;5059305;28;20060;-83
2022/04/19 12:37:21;;;;;;;10.65;4.95;;;;;;;;;;5060746;28;20045;-82
2022/04/19 12:40:00;;;;;;;9.65;5.68;;;;;;;;;;5047148;28;20068;-82
2022/04/19 12:42:26;;;;;;;16.38;6.38;;;;;;;;;;5075418;28;20478;-84
2022/04/19 12:45:06;;;;;;;9.27;5.10;;;;;;;;;;5087119;28;20035;-82
2022/04/19 12:47:32;;;;;;;11.65;5.18;;;;;;;;;;5059978;28;20127;-83
2022/04/19 12:49:58;;;;;;;10.90;5.40;;;;;;;;;;5071265;28;20059;-81
2022/04/19 12:52:31;;;;;;;16.90;7.30;;;;;;;;;;5073925;28;20028;-81
2022/04/19 12:55:01;;;;;;;16.80;7.10;;;;;;;;;;5070309;28;20039;-82
2022/04/19 12:57:27;;;;;;;14.13;7.85;;;;;;;;;;5076419;28;20450;-85
2022/04/19 12:59:54;;;;;;;12.27;7.32;;;;;;;;;;5057549;28;20032;-82
2022/04/19 13:02:20;;;;;;;13.18;6.70;;;;;;;;;;5039490;28;20123;-83
2022/04/19 13:04:47;;;;;;;14.63;7.15;;;;;;;;;;5069831;28;20040;-81
2022/04/19 13:12:43;;;;;;;12.98;7.70;;;;;;;;;;5052427;28;20047;-83
2022/04/19 13:15:09;;;;;;;14.00;7.80;;;;;;;;;;5052640;28;20029;-82
2022/04/19 13:17:37;;;;;;;13.27;8.15;;;;;;;;;;5070381;28;20034;-81
2022/04/19 13:20:04;;;;;;;14.98;8.10;;;;;;;;;;5072486;28;20101;-80
2022/04/19 13:22:30;;;;;;;16.77;9.15;;;;;;;;;;5068834;28;20065;-81
2022/04/19 13:24:57;;;;;;;15.95;8.43;;;;;;;;;;5053966;28;20063;-85
2022/04/19 13:27:24;;;;;;;15.85;8.40;;;;;;;;;;5056753;28;20073;-83
2022/04/19 13:29:50;;;;;;;14.07;7.85;;;;;;;;;;5056238;28;20386;-81
2022/04/19 13:32:16;;;;;;;15.25;8.50;;;;;;;;;;5059797;28;20112;-80
2022/04/19 13:34:42;;;;;;;17.17;8.55;;;;;;;;;;5056868;28;20032;-85
2022/04/19 13:37:09;;;;;;;16.95;8.73;;;;;;;;;;5055382;28;20040;-82
2022/04/19 13:39:35;;;;;;;13.52;8.10;;;;;;;;;;5057191;28;20113;-81
2022/04/19 13:42:01;;;;;;;15.77;8.30;;;;;;;;;;5073895;28;20142;-80
2022/04/19 13:44:27;;;;;;;13.15;7.82;;;;;;;;;;5081465;28;20077;-84
2022/04/19 13:46:56;;;;;;;12.95;7.95;;;;;;;;;;5077959;28;20048;-82
2022/04/19 13:49:23;;;;;;;16.52;7.57;;;;;;;;;;5066340;28;20023;-82
2022/04/19 13:51:49;;;;;;;10.73;6.57;;;;;;;;;;5075548;28;20048;-82
2022/04/19 13:54:18;;;;;;;12.85;6.57;;;;;;;;;;5074380;28;20027;-83
2022/04/19 13:56:46;;;;;;;10.05;6.18;;;;;;;;;;5073824;28;20025;-82
2022/04/19 13:59:13;;;;;;;9.57;6.22;;;;;;;;;;5070313;28;20094;-82
2022/04/19 14:01:39;;;;;;;10.88;6.85;;;;;;;;;;5053229;28;20065;-80
2022/04/19 14:04:06;;;;;;;9.90;6.45;;;;;;;;;;5050904;28;20541;-82
2022/04/19 14:06:35;;;;;;;22.42;6.88;;;;;;;;;;5051415;28;20029;-83
2022/04/19 14:09:02;;;;;;;13.75;6.95;;;;;;;;;;5053907;28;20043;-81
2022/04/19 14:11:28;;;;;;;9.90;6.13;;;;;;;;;;5069550;28;20062;-83
2022/04/19 14:13:54;;;;;;;7.63;5.72;;;;;;;;;;5072387;28;20031;-82
2022/04/19 14:16:20;;;;;;;10.40;6.18;;;;;;;;;;5054415;28;20020;-81
2022/04/19 14:18:46;;;;;;;9.15;5.82;;;;;;;;;;5053606;28;20047;-83
2022/04/19 14:21:12;;;;;;;14.25;5.68;;;;;;;;;;5054778;28;20033;-81
2022/04/19 14:23:38;;;;;;;10.57;6.00;;;;;;;;;;5054119;28;20040;-80
2022/04/19 14:26:04;;;;;;;14.05;5.30;;;;;;;;;;5038741;28;20108;-82
2022/04/19 14:34:00;;;;;;;7.22;4.60;;;;;;;;;;5067042;28;20124;-77
2022/04/19 14:36:26;;;;;;;7.45;5.15;;;;;;;;;;5060656;28;20090;-76
2022/04/19 14:38:52;;;;;;;10.82;4.13;;;;;;;;;;5055092;28;20405;-73
2022/04/19 14:41:19;;;;;;;7.00;4.40;;;;;;;;;;5059036;28;20021;-74
2022/04/19 14:43:46;;;;;;;5.50;3.45;;;;;;;;;;5055562;28;20033;-76
2022/04/19 14:46:12;;;;;;;6.03;3.35;;;;;;;;;;5056944;28;20533;-77
2022/04/19 14:48:38;;;;;;;7.22;3.83;;;;;;;;;;5058161;28;20398;-77
2022/04/19 14:53:50;;;;;;;8.40;3.70;;;;;;;;;;5058758;28;20135;-74
2022/04/19 14:56:16;;;;;;;22.83;5.88;;;;;;;;;;5054601;28;20353;-77
2022/04/19 14:58:42;;;;;;;12.38;4.05;;;;;;;;;;5051763;28;20033;-76
2022/04/19 15:01:12;;;;;;;8.35;4.90;;;;;;;;;;5057045;28;20052;-75
2022/04/19 15:03:39;;;;;;;8.15;5.00;;;;;;;;;;5049515;28;20032;-78
2022/04/19 15:06:05;;;;;;;7.55;4.93;;;;;;;;;;5054603;28;20021;-78
2022/04/19 15:08:31;;;;;;;8.40;4.53;;;;;;;;;;5056316;28;20028;-77
2022/04/19 15:10:57;;;;;;;24.52;5.80;;;;;;;;;;5042286;28;20064;-77
2022/04/19 15:13:23;;;;;;;8.18;5.35;;;;;;;;;;5063415;28;20029;-76
2022/04/19 15:15:49;;;;;;;8.13;5.47;;;;;;;;;;5060453;28;20044;-79
2022/04/19 15:18:15;;;;;;;11.13;5.97;;;;;;;;;;5060325;28;20055;-79
2022/04/19 15:20:41;;;;;;;6.38;5.05;;;;;;;;;;5057673;28;20482;-79
2022/04/19 15:23:08;;;;;;;7.13;5.25;;;;;;;;;;5062743;28;20036;-78